sensor_id;sensor_type;location;lat;lon;timestamp;P1;durP1;ratioP1;P2;durP2;ratioP2
4021;SDS011;2025;48.260;16.432;2023-06-10T00:02:06;5.93;;;2.28;;
4021;SDS011;2025;48.260;16.432;2023-06-10T00:04:33;7.63;;;3.45;;
4021;SDS011;2025;48.260;16.432;2023-06-10T00:07:01;7.40;;;4.22;;
4021;SDS011;2025;48.260;16.432;2023-06-10T00:09:29;7.22;;;2.78;;
4021;SDS011;2025;48.260;16.432;2023-06-10T00:11:58;6.43;;;2.63;;
4021;SDS011;2025;48.260;16.432;2023-06-10T00:14:25;9.07;;;2.40;;
4021;SDS011;2025;48.260;16.432;2023-06-10T00:16:52;8.95;;;3.00;;
4021;SDS011;2025;48.260;16.432;2023-06-10T00:19:20;8.00;;;2.45;;
4021;SDS011;2025;48.260;16.432;2023-06-10T00:21:50;7.20;;;3.83;;
4021;SDS011;2025;48.260;16.432;2023-06-10T00:24:18;5.97;;;2.28;;
4021;SDS011;2025;48.260;16.432;2023-06-10T00:26:45;11.82;;;2.95;;
4021;SDS011;2025;48.260;16.432;2023-06-10T00:29:14;7.25;;;3.85;;
4021;SDS011;2025;48.260;16.432;2023-06-10T00:31:41;7.45;;;2.83;;
4021;SDS011;2025;48.260;16.432;2023-06-10T00:34:08;7.03;;;2.80;;
4021;SDS011;2025;48.260;16.432;2023-06-10T00:36:35;8.75;;;3.22;;
4021;SDS011;2025;48.260;16.432;2023-06-10T00:39:02;7.20;;;2.88;;
4021;SDS011;2025;48.260;16.432;2023-06-10T00:41:30;6.25;;;2.53;;
4021;SDS011;2025;48.260;16.432;2023-06-10T00:43:59;9.07;;;3.22;;
4021;SDS011;2025;48.260;16.432;2023-06-10T00:46:28;8.45;;;2.75;;
4021;SDS011;2025;48.260;16.432;2023-06-10T00:48:57;7.50;;;2.92;;
4021;SDS011;2025;48.260;16.432;2023-06-10T00:51:25;7.28;;;2.63;;
4021;SDS011;2025;48.260;16.432;2023-06-10T00:53:52;7.65;;;2.80;;
4021;SDS011;2025;48.260;16.432;2023-06-10T00:56:20;8.63;;;2.63;;
4021;SDS011;2025;48.260;16.432;2023-06-10T00:58:48;8.40;;;3.20;;
4021;SDS011;2025;48.260;16.432;2023-06-10T01:01:15;7.53;;;3.38;;
4021;SDS011;2025;48.260;16.432;2023-06-10T01:03:44;6.55;;;2.85;;
4021;SDS011;2025;48.260;16.432;2023-06-10T01:06:14;7.43;;;3.95;;
4021;SDS011;2025;48.260;16.432;2023-06-10T01:08:53;7.82;;;4.40;;
4021;SDS011;2025;48.260;16.432;2023-06-10T01:11:28;7.78;;;2.80;;
4021;SDS011;2025;48.260;16.432;2023-06-10T01:14:00;7.40;;;2.60;;
4021;SDS011;2025;48.260;16.432;2023-06-10T01:16:30;9.32;;;3.28;;
4021;SDS011;2025;48.260;16.432;2023-06-10T01:18:59;9.10;;;3.20;;
4021;SDS011;2025;48.260;16.432;2023-06-10T01:21:27;8.25;;;3.05;;
4021;SDS011;2025;48.260;16.432;2023-06-10T01:23:56;7.10;;;3.08;;
4021;SDS011;2025;48.260;16.432;2023-06-10T01:26:25;8.00;;;3.53;;
4021;SDS011;2025;48.260;16.432;2023-06-10T01:28:58;8.23;;;3.60;;
4021;SDS011;2025;48.260;16.432;2023-06-10T01:31:32;8.48;;;3.65;;
4021;SDS011;2025;48.260;16.432;2023-06-10T01:34:06;9.90;;;3.75;;
4021;SDS011;2025;48.260;16.432;2023-06-10T01:36:38;8.40;;;3.83;;
4021;SDS011;2025;48.260;16.432;2023-06-10T01:39:07;8.35;;;3.72;;
4021;SDS011;2025;48.260;16.432;2023-06-10T01:41:35;7.93;;;3.67;;
4021;SDS011;2025;48.260;16.432;2023-06-10T01:44:02;11.48;;;4.18;;
4021;SDS011;2025;48.260;16.432;2023-06-10T01:46:30;10.00;;;4.07;;
4021;SDS011;2025;48.260;16.432;2023-06-10T01:48:57;10.15;;;4.10;;
4021;SDS011;2025;48.260;16.432;2023-06-10T01:51:24;11.18;;;4.13;;
4021;SDS011;2025;48.260;16.432;2023-06-10T01:53:53;10.63;;;6.03;;
4021;SDS011;2025;48.260;16.432;2023-06-10T01:56:20;8.45;;;3.97;;
4021;SDS011;2025;48.260;16.432;2023-06-10T01:58:47;11.38;;;5.75;;
4021;SDS011;2025;48.260;16.432;2023-06-10T02:01:14;11.80;;;6.38;;
4021;SDS011;2025;48.260;16.432;2023-06-10T02:03:41;11.52;;;4.22;;
4021;SDS011;2025;48.260;16.432;2023-06-10T02:06:08;11.95;;;5.78;;
4021;SDS011;2025;48.260;16.432;2023-06-10T02:08:35;11.15;;;6.15;;
4021;SDS011;2025;48.260;16.432;2023-06-10T02:11:03;12.68;;;5.78;;
4021;SDS011;2025;48.260;16.432;2023-06-10T02:13:32;11.63;;;4.43;;
4021;SDS011;2025;48.260;16.432;2023-06-10T02:15:59;12.27;;;4.95;;
4021;SDS011;2025;48.260;16.432;2023-06-10T02:18:26;10.55;;;5.57;;
4021;SDS011;2025;48.260;16.432;2023-06-10T02:20:54;11.32;;;5.15;;
4021;SDS011;2025;48.260;16.432;2023-06-10T02:23:21;12.68;;;6.75;;
4021;SDS011;2025;48.260;16.432;2023-06-10T02:25:48;12.00;;;5.25;;
4021;SDS011;2025;48.260;16.432;2023-06-10T02:28:17;14.02;;;6.50;;
4021;SDS011;2025;48.260;16.432;2023-06-10T02:30:44;13.52;;;6.78;;
4021;SDS011;2025;48.260;16.432;2023-06-10T02:33:11;11.93;;;5.55;;
4021;SDS011;2025;48.260;16.432;2023-06-10T02:35:39;10.43;;;5.90;;
4021;SDS011;2025;48.260;16.432;2023-06-10T02:38:06;13.30;;;5.65;;
4021;SDS011;2025;48.260;16.432;2023-06-10T02:40:33;13.65;;;7.53;;
4021;SDS011;2025;48.260;16.432;2023-06-10T02:43:00;12.25;;;6.50;;
4021;SDS011;2025;48.260;16.432;2023-06-10T02:45:29;11.88;;;5.47;;
4021;SDS011;2025;48.260;16.432;2023-06-10T02:47:56;12.70;;;5.90;;
4021;SDS011;2025;48.260;16.432;2023-06-10T02:50:23;10.65;;;4.72;;
4021;SDS011;2025;48.260;16.432;2023-06-10T02:52:50;13.40;;;6.97;;
4021;SDS011;2025;48.260;16.432;2023-06-10T02:55:17;12.25;;;5.70;;
4021;SDS011;2025;48.260;16.432;2023-06-10T02:57:44;13.20;;;6.60;;
4021;SDS011;2025;48.260;16.432;2023-06-10T03:00:11;13.70;;;5.25;;
4021;SDS011;2025;48.260;16.432;2023-06-10T03:02:40;11.75;;;5.63;;
4021;SDS011;2025;48.260;16.432;2023-06-10T03:05:08;14.07;;;6.07;;
4021;SDS011;2025;48.260;16.432;2023-06-10T03:07:36;12.57;;;6.00;;
4021;SDS011;2025;48.260;16.432;2023-06-10T03:10:03;12.82;;;5.53;;
4021;SDS011;2025;48.260;16.432;2023-06-10T03:12:31;15.43;;;6.45;;
4021;SDS011;2025;48.260;16.432;2023-06-10T03:14:58;14.23;;;5.45;;
4021;SDS011;2025;48.260;16.432;2023-06-10T03:17:25;15.82;;;6.05;;
4021;SDS011;2025;48.260;16.432;2023-06-10T03:19:54;12.10;;;5.45;;
4021;SDS011;2025;48.260;16.432;2023-06-10T03:22:21;12.68;;;6.32;;
4021;SDS011;2025;48.260;16.432;2023-06-10T03:24:48;12.50;;;7.30;;
4021;SDS011;2025;48.260;16.432;2023-06-10T03:27:15;13.90;;;5.95;;
4021;SDS011;2025;48.260;16.432;2023-06-10T03:29:42;14.77;;;6.15;;
4021;SDS011;2025;48.260;16.432;2023-06-10T03:32:10;14.93;;;7.25;;
4021;SDS011;2025;48.260;16.432;2023-06-10T03:34:37;14.50;;;6.43;;
4021;SDS011;2025;48.260;16.432;2023-06-10T03:37:06;13.70;;;7.05;;
4021;SDS011;2025;48.260;16.432;2023-06-10T03:39:33;14.50;;;6.55;;
4021;SDS011;2025;48.260;16.432;2023-06-10T03:42:00;12.35;;;6.20;;
4021;SDS011;2025;48.260;16.432;2023-06-10T03:44:27;13.82;;;6.28;;
4021;SDS011;2025;48.260;16.432;2023-06-10T03:46:54;14.52;;;6.45;;
4021;SDS011;2025;48.260;16.432;2023-06-10T03:49:22;13.70;;;6.20;;
4021;SDS011;2025;48.260;16.432;2023-06-10T03:51:51;12.88;;;5.45;;
4021;SDS011;2025;48.260;16.432;2023-06-10T03:54:20;13.18;;;5.90;;
4021;SDS011;2025;48.260;16.432;2023-06-10T03:56:47;14.75;;;7.35;;
4021;SDS011;2025;48.260;16.432;2023-06-10T03:59:14;12.98;;;6.30;;
4021;SDS011;2025;48.260;16.432;2023-06-10T04:01:41;14.00;;;6.53;;
4021;SDS011;2025;48.260;16.432;2023-06-10T04:04:09;13.10;;;6.30;;
4021;SDS011;2025;48.260;16.432;2023-06-10T04:06:36;13.57;;;6.18;;
4021;SDS011;2025;48.260;16.432;2023-06-10T04:09:03;13.80;;;7.63;;
4021;SDS011;2025;48.260;16.432;2023-06-10T04:11:32;16.85;;;8.15;;
4021;SDS011;2025;48.260;16.432;2023-06-10T04:13:59;13.68;;;7.68;;
4021;SDS011;2025;48.260;16.432;2023-06-10T04:16:26;14.20;;;6.95;;
4021;SDS011;2025;48.260;16.432;2023-06-10T04:18:53;15.98;;;8.98;;
4021;SDS011;2025;48.260;16.432;2023-06-10T04:21:21;12.52;;;6.70;;
4021;SDS011;2025;48.260;16.432;2023-06-10T04:23:48;18.45;;;7.65;;
4021;SDS011;2025;48.260;16.432;2023-06-10T04:26:15;15.35;;;7.55;;
4021;SDS011;2025;48.260;16.432;2023-06-10T04:28:44;16.27;;;8.07;;
4021;SDS011;2025;48.260;16.432;2023-06-10T04:31:11;16.73;;;8.23;;
4021;SDS011;2025;48.260;16.432;2023-06-10T04:33:37;14.30;;;7.78;;
4021;SDS011;2025;48.260;16.432;2023-06-10T04:36:05;15.65;;;7.70;;
4021;SDS011;2025;48.260;16.432;2023-06-10T04:38:33;12.55;;;7.18;;
4021;SDS011;2025;48.260;16.432;2023-06-10T04:41:00;13.70;;;7.35;;
4021;SDS011;2025;48.260;16.432;2023-06-10T04:43:27;15.52;;;6.97;;
4021;SDS011;2025;48.260;16.432;2023-06-10T04:45:56;16.67;;;8.68;;
4021;SDS011;2025;48.260;16.432;2023-06-10T04:48:23;13.60;;;6.43;;
4021;SDS011;2025;48.260;16.432;2023-06-10T04:50:50;15.48;;;8.88;;
4021;SDS011;2025;48.260;16.432;2023-06-10T04:53:17;12.98;;;6.13;;
4021;SDS011;2025;48.260;16.432;2023-06-10T04:55:44;15.38;;;9.10;;
4021;SDS011;2025;48.260;16.432;2023-06-10T04:58:11;14.18;;;8.13;;
4021;SDS011;2025;48.260;16.432;2023-06-10T05:00:38;14.57;;;7.25;;
4021;SDS011;2025;48.260;16.432;2023-06-10T05:03:07;14.82;;;7.90;;
4021;SDS011;2025;48.260;16.432;2023-06-10T05:05:34;15.25;;;7.97;;
4021;SDS011;2025;48.260;16.432;2023-06-10T05:08:01;13.82;;;6.63;;
4021;SDS011;2025;48.260;16.432;2023-06-10T05:10:28;12.57;;;7.00;;
4021;SDS011;2025;48.260;16.432;2023-06-10T05:12:56;15.50;;;8.07;;
4021;SDS011;2025;48.260;16.432;2023-06-10T05:15:24;15.30;;;7.25;;
4021;SDS011;2025;48.260;16.432;2023-06-10T05:17:51;15.20;;;7.65;;
4021;SDS011;2025;48.260;16.432;2023-06-10T05:20:19;17.20;;;8.13;;
4021;SDS011;2025;48.260;16.432;2023-06-10T05:22:47;15.02;;;8.73;;
4021;SDS011;2025;48.260;16.432;2023-06-10T05:25:14;17.45;;;10.18;;
4021;SDS011;2025;48.260;16.432;2023-06-10T05:27:41;15.57;;;9.43;;
4021;SDS011;2025;48.260;16.432;2023-06-10T05:30:09;16.60;;;9.10;;
4021;SDS011;2025;48.260;16.432;2023-06-10T05:32:37;14.95;;;7.50;;
4021;SDS011;2025;48.260;16.432;2023-06-10T05:35:04;18.30;;;10.27;;
4021;SDS011;2025;48.260;16.432;2023-06-10T05:37:34;17.30;;;9.65;;
4021;SDS011;2025;48.260;16.432;2023-06-10T05:40:02;18.20;;;10.10;;
4021;SDS011;2025;48.260;16.432;2023-06-10T05:42:30;17.48;;;9.75;;
4021;SDS011;2025;48.260;16.432;2023-06-10T05:44:57;18.10;;;10.75;;
4021;SDS011;2025;48.260;16.432;2023-06-10T05:47:24;21.33;;;11.43;;
4021;SDS011;2025;48.260;16.432;2023-06-10T05:49:51;19.15;;;10.75;;
4021;SDS011;2025;48.260;16.432;2023-06-10T05:52:18;20.00;;;9.23;;
4021;SDS011;2025;48.260;16.432;2023-06-10T05:54:46;19.60;;;9.82;;
4021;SDS011;2025;48.260;16.432;2023-06-10T05:57:14;20.15;;;9.77;;
4021;SDS011;2025;48.260;16.432;2023-06-10T05:59:41;20.30;;;10.93;;
4021;SDS011;2025;48.260;16.432;2023-06-10T06:02:07;16.58;;;9.98;;
4021;SDS011;2025;48.260;16.432;2023-06-10T06:04:35;21.27;;;9.50;;
4021;SDS011;2025;48.260;16.432;2023-06-10T06:07:02;17.08;;;8.95;;
4021;SDS011;2025;48.260;16.432;2023-06-10T06:09:30;18.25;;;9.43;;
4021;SDS011;2025;48.260;16.432;2023-06-10T06:11:58;18.40;;;8.10;;
4021;SDS011;2025;48.260;16.432;2023-06-10T06:14:25;18.17;;;9.23;;
4021;SDS011;2025;48.260;16.432;2023-06-10T06:16:52;17.27;;;10.10;;
4021;SDS011;2025;48.260;16.432;2023-06-10T06:19:19;17.77;;;9.27;;
4021;SDS011;2025;48.260;16.432;2023-06-10T06:21:46;17.83;;;10.13;;
4021;SDS011;2025;48.260;16.432;2023-06-10T06:24:13;17.73;;;8.70;;
4021;SDS011;2025;48.260;16.432;2023-06-10T06:26:41;19.08;;;8.95;;
4021;SDS011;2025;48.260;16.432;2023-06-10T06:29:10;17.75;;;9.27;;
4021;SDS011;2025;48.260;16.432;2023-06-10T06:31:37;17.45;;;9.48;;
4021;SDS011;2025;48.260;16.432;2023-06-10T06:34:04;17.55;;;8.65;;
4021;SDS011;2025;48.260;16.432;2023-06-10T06:36:31;16.20;;;9.93;;
4021;SDS011;2025;48.260;16.432;2023-06-10T06:38:58;17.83;;;8.45;;
4021;SDS011;2025;48.260;16.432;2023-06-10T06:41:26;17.05;;;10.05;;
4021;SDS011;2025;48.260;16.432;2023-06-10T06:43:53;20.02;;;8.52;;
4021;SDS011;2025;48.260;16.432;2023-06-10T06:46:22;16.58;;;9.60;;
4021;SDS011;2025;48.260;16.432;2023-06-10T06:48:49;17.38;;;9.20;;
4021;SDS011;2025;48.260;16.432;2023-06-10T06:51:16;17.23;;;9.38;;
4021;SDS011;2025;48.260;16.432;2023-06-10T06:53:43;15.52;;;7.38;;
4021;SDS011;2025;48.260;16.432;2023-06-10T06:56:10;18.90;;;10.27;;
4021;SDS011;2025;48.260;16.432;2023-06-10T06:58:38;18.65;;;9.73;;
4021;SDS011;2025;48.260;16.432;2023-06-10T07:01:05;19.45;;;9.60;;
4021;SDS011;2025;48.260;16.432;2023-06-10T07:03:33;20.58;;;10.75;;
4021;SDS011;2025;48.260;16.432;2023-06-10T07:06:00;23.42;;;11.70;;
4021;SDS011;2025;48.260;16.432;2023-06-10T07:08:27;17.77;;;10.27;;
4021;SDS011;2025;48.260;16.432;2023-06-10T07:10:54;20.38;;;10.27;;
4021;SDS011;2025;48.260;16.432;2023-06-10T07:13:21;18.50;;;10.23;;
4021;SDS011;2025;48.260;16.432;2023-06-10T07:15:48;16.23;;;8.82;;
4021;SDS011;2025;48.260;16.432;2023-06-10T07:18:15;20.05;;;10.90;;
4021;SDS011;2025;48.260;16.432;2023-06-10T07:20:44;20.20;;;11.10;;
4021;SDS011;2025;48.260;16.432;2023-06-10T07:23:11;17.60;;;10.10;;
4021;SDS011;2025;48.260;16.432;2023-06-10T07:25:38;21.08;;;10.48;;
4021;SDS011;2025;48.260;16.432;2023-06-10T07:28:05;19.63;;;10.50;;
4021;SDS011;2025;48.260;16.432;2023-06-10T07:30:32;18.02;;;10.68;;
4021;SDS011;2025;48.260;16.432;2023-06-10T07:32:59;16.80;;;10.27;;
4021;SDS011;2025;48.260;16.432;2023-06-10T07:35:27;19.40;;;11.63;;
4021;SDS011;2025;48.260;16.432;2023-06-10T07:37:55;19.38;;;11.43;;
4021;SDS011;2025;48.260;16.432;2023-06-10T07:40:23;17.25;;;10.27;;
4021;SDS011;2025;48.260;16.432;2023-06-10T07:42:50;17.42;;;10.73;;
4021;SDS011;2025;48.260;16.432;2023-06-10T07:45:18;18.50;;;10.07;;
4021;SDS011;2025;48.260;16.432;2023-06-10T07:47:45;19.88;;;11.30;;
4021;SDS011;2025;48.260;16.432;2023-06-10T07:50:12;19.77;;;10.57;;
4021;SDS011;2025;48.260;16.432;2023-06-10T07:52:39;19.17;;;9.23;;
4021;SDS011;2025;48.260;16.432;2023-06-10T07:55:07;18.73;;;10.20;;
4021;SDS011;2025;48.260;16.432;2023-06-10T07:57:35;22.90;;;11.65;;
4021;SDS011;2025;48.260;16.432;2023-06-10T08:00:05;19.75;;;10.68;;
4021;SDS011;2025;48.260;16.432;2023-06-10T08:02:33;17.85;;;9.75;;
4021;SDS011;2025;48.260;16.432;2023-06-10T08:05:00;20.33;;;10.82;;
4021;SDS011;2025;48.260;16.432;2023-06-10T08:07:27;17.67;;;10.10;;
4021;SDS011;2025;48.260;16.432;2023-06-10T08:09:54;23.13;;;11.52;;
4021;SDS011;2025;48.260;16.432;2023-06-10T08:12:23;20.42;;;12.05;;
4021;SDS011;2025;48.260;16.432;2023-06-10T08:14:50;17.83;;;10.93;;
4021;SDS011;2025;48.260;16.432;2023-06-10T08:17:17;20.77;;;10.95;;
4021;SDS011;2025;48.260;16.432;2023-06-10T08:19:44;19.98;;;11.23;;
4021;SDS011;2025;48.260;16.432;2023-06-10T08:22:11;20.75;;;10.30;;
4021;SDS011;2025;48.260;16.432;2023-06-10T08:24:38;19.08;;;10.52;;
4021;SDS011;2025;48.260;16.432;2023-06-10T08:27:05;18.77;;;8.60;;
4021;SDS011;2025;48.260;16.432;2023-06-10T08:29:33;18.40;;;11.48;;
4021;SDS011;2025;48.260;16.432;2023-06-10T08:32:00;18.25;;;9.48;;
4021;SDS011;2025;48.260;16.432;2023-06-10T08:34:28;19.88;;;9.65;;
4021;SDS011;2025;48.260;16.432;2023-06-10T08:36:55;20.05;;;11.48;;
4021;SDS011;2025;48.260;16.432;2023-06-10T08:39:22;18.33;;;10.85;;
4021;SDS011;2025;48.260;16.432;2023-06-10T08:41:51;20.55;;;11.63;;
4021;SDS011;2025;48.260;16.432;2023-06-10T08:44:27;20.90;;;10.68;;
4021;SDS011;2025;48.260;16.432;2023-06-10T08:46:58;20.48;;;9.63;;
4021;SDS011;2025;48.260;16.432;2023-06-10T08:49:26;20.40;;;10.38;;
4021;SDS011;2025;48.260;16.432;2023-06-10T08:51:58;19.27;;;10.43;;
4021;SDS011;2025;48.260;16.432;2023-06-10T08:54:27;18.42;;;10.27;;
4021;SDS011;2025;48.260;16.432;2023-06-10T08:56:56;18.73;;;9.85;;
4021;SDS011;2025;48.260;16.432;2023-06-10T08:59:26;19.00;;;10.77;;
4021;SDS011;2025;48.260;16.432;2023-06-10T09:01:53;18.08;;;10.70;;
4021;SDS011;2025;48.260;16.432;2023-06-10T09:04:22;17.75;;;11.13;;
4021;SDS011;2025;48.260;16.432;2023-06-10T09:06:51;17.98;;;10.77;;
4021;SDS011;2025;48.260;16.432;2023-06-10T09:09:18;16.55;;;9.93;;
4021;SDS011;2025;48.260;16.432;2023-06-10T09:11:46;16.15;;;9.20;;
4021;SDS011;2025;48.260;16.432;2023-06-10T09:14:13;16.45;;;9.00;;
4021;SDS011;2025;48.260;16.432;2023-06-10T09:16:41;18.58;;;10.55;;
4021;SDS011;2025;48.260;16.432;2023-06-10T09:19:09;18.85;;;10.68;;
4021;SDS011;2025;48.260;16.432;2023-06-10T09:21:38;17.83;;;9.93;;
4021;SDS011;2025;48.260;16.432;2023-06-10T09:24:05;15.13;;;10.07;;
4021;SDS011;2025;48.260;16.432;2023-06-10T09:26:32;18.13;;;10.25;;
4021;SDS011;2025;48.260;16.432;2023-06-10T09:29:02;14.00;;;8.98;;
4021;SDS011;2025;48.260;16.432;2023-06-10T09:31:30;14.93;;;9.25;;
4021;SDS011;2025;48.260;16.432;2023-06-10T09:34:04;17.90;;;9.80;;
4021;SDS011;2025;48.260;16.432;2023-06-10T09:36:33;17.90;;;10.00;;
4021;SDS011;2025;48.260;16.432;2023-06-10T09:39:01;15.80;;;9.45;;
4021;SDS011;2025;48.260;16.432;2023-06-10T09:41:32;14.10;;;8.90;;
4021;SDS011;2025;48.260;16.432;2023-06-10T09:44:00;15.90;;;9.07;;
4021;SDS011;2025;48.260;16.432;2023-06-10T09:46:30;17.23;;;8.38;;
4021;SDS011;2025;48.260;16.432;2023-06-10T09:48:58;14.95;;;9.13;;
4021;SDS011;2025;48.260;16.432;2023-06-10T09:51:25;13.73;;;8.98;;
4021;SDS011;2025;48.260;16.432;2023-06-10T09:53:52;15.85;;;9.73;;
4021;SDS011;2025;48.260;16.432;2023-06-10T09:56:21;15.73;;;9.38;;
4021;SDS011;2025;48.260;16.432;2023-06-10T09:58:59;15.63;;;9.73;;
4021;SDS011;2025;48.260;16.432;2023-06-10T10:01:27;15.25;;;9.38;;
4021;SDS011;2025;48.260;16.432;2023-06-10T10:03:54;15.13;;;9.23;;
4021;SDS011;2025;48.260;16.432;2023-06-10T10:06:21;15.73;;;9.80;;
4021;SDS011;2025;48.260;16.432;2023-06-10T10:08:49;16.70;;;10.43;;
4021;SDS011;2025;48.260;16.432;2023-06-10T10:11:17;15.00;;;9.90;;
4021;SDS011;2025;48.260;16.432;2023-06-10T10:13:48;14.93;;;7.40;;
4021;SDS011;2025;48.260;16.432;2023-06-10T10:16:17;15.82;;;9.32;;
4021;SDS011;2025;48.260;16.432;2023-06-10T10:18:47;16.23;;;9.43;;
4021;SDS011;2025;48.260;16.432;2023-06-10T10:21:21;14.05;;;9.27;;
4021;SDS011;2025;48.260;16.432;2023-06-10T10:23:52;13.18;;;8.68;;
4021;SDS011;2025;48.260;16.432;2023-06-10T10:26:26;13.75;;;7.03;;
4021;SDS011;2025;48.260;16.432;2023-06-10T10:28:58;14.65;;;7.47;;
4021;SDS011;2025;48.260;16.432;2023-06-10T10:31:34;16.60;;;8.55;;
4021;SDS011;2025;48.260;16.432;2023-06-10T10:34:04;13.65;;;8.35;;
4021;SDS011;2025;48.260;16.432;2023-06-10T10:36:34;13.80;;;6.93;;
4021;SDS011;2025;48.260;16.432;2023-06-10T10:39:02;12.95;;;8.30;;
4021;SDS011;2025;48.260;16.432;2023-06-10T10:41:31;15.93;;;8.43;;
4021;SDS011;2025;48.260;16.432;2023-06-10T10:44:00;13.35;;;8.27;;
4021;SDS011;2025;48.260;16.432;2023-06-10T10:46:31;13.48;;;7.90;;
4021;SDS011;2025;48.260;16.432;2023-06-10T10:49:09;11.93;;;7.47;;
4021;SDS011;2025;48.260;16.432;2023-06-10T10:51:38;13.23;;;7.40;;
4021;SDS011;2025;48.260;16.432;2023-06-10T10:54:22;12.85;;;7.97;;
4021;SDS011;2025;48.260;16.432;2023-06-10T10:57:11;11.77;;;7.65;;
4021;SDS011;2025;48.260;16.432;2023-06-10T10:59:51;12.85;;;7.90;;
4021;SDS011;2025;48.260;16.432;2023-06-10T11:02:32;12.75;;;6.93;;
4021;SDS011;2025;48.260;16.432;2023-06-10T11:05:04;13.38;;;6.97;;
4021;SDS011;2025;48.260;16.432;2023-06-10T11:07:32;14.18;;;8.07;;
4021;SDS011;2025;48.260;16.432;2023-06-10T11:10:00;12.40;;;6.32;;
4021;SDS011;2025;48.260;16.432;2023-06-10T11:12:40;13.10;;;7.55;;
4021;SDS011;2025;48.260;16.432;2023-06-10T11:15:09;12.88;;;7.53;;
4021;SDS011;2025;48.260;16.432;2023-06-10T11:17:36;13.18;;;8.15;;
4021;SDS011;2025;48.260;16.432;2023-06-10T11:20:04;15.10;;;8.77;;
4021;SDS011;2025;48.260;16.432;2023-06-10T11:22:32;13.02;;;7.13;;
4021;SDS011;2025;48.260;16.432;2023-06-10T11:24:59;13.60;;;8.68;;
4021;SDS011;2025;48.260;16.432;2023-06-10T11:27:27;12.52;;;8.40;;
4021;SDS011;2025;48.260;16.432;2023-06-10T11:32:51;14.70;;;8.70;;
4021;SDS011;2025;48.260;16.432;2023-06-10T11:35:19;13.85;;;7.55;;
4021;SDS011;2025;48.260;16.432;2023-06-10T11:37:47;12.18;;;7.53;;
4021;SDS011;2025;48.260;16.432;2023-06-10T11:40:14;10.93;;;6.95;;
4021;SDS011;2025;48.260;16.432;2023-06-10T11:42:42;13.10;;;8.20;;
4021;SDS011;2025;48.260;16.432;2023-06-10T11:45:09;11.18;;;8.15;;
4021;SDS011;2025;48.260;16.432;2023-06-10T11:47:54;13.73;;;7.75;;
4021;SDS011;2025;48.260;16.432;2023-06-10T11:50:27;11.25;;;7.20;;
4021;SDS011;2025;48.260;16.432;2023-06-10T11:52:55;11.98;;;6.97;;
4021;SDS011;2025;48.260;16.432;2023-06-10T11:55:23;11.80;;;8.88;;
4021;SDS011;2025;48.260;16.432;2023-06-10T11:57:51;11.82;;;6.95;;
4021;SDS011;2025;48.260;16.432;2023-06-10T12:00:22;11.98;;;6.35;;
4021;SDS011;2025;48.260;16.432;2023-06-10T12:02:56;12.25;;;7.72;;
4021;SDS011;2025;48.260;16.432;2023-06-10T12:05:23;13.63;;;7.85;;
4021;SDS011;2025;48.260;16.432;2023-06-10T12:10:39;10.45;;;6.78;;
4021;SDS011;2025;48.260;16.432;2023-06-10T12:13:07;11.45;;;5.57;;
4021;SDS011;2025;48.260;16.432;2023-06-10T12:15:34;11.15;;;7.70;;
4021;SDS011;2025;48.260;16.432;2023-06-10T12:18:02;10.95;;;6.70;;
4021;SDS011;2025;48.260;16.432;2023-06-10T12:20:30;10.07;;;5.82;;
4021;SDS011;2025;48.260;16.432;2023-06-10T12:22:59;10.82;;;7.25;;
4021;SDS011;2025;48.260;16.432;2023-06-10T12:25:27;13.40;;;7.05;;
4021;SDS011;2025;48.260;16.432;2023-06-10T12:27:55;15.25;;;8.10;;
4021;SDS011;2025;48.260;16.432;2023-06-10T12:30:24;13.02;;;8.18;;
4021;SDS011;2025;48.260;16.432;2023-06-10T12:32:52;11.85;;;6.95;;
4021;SDS011;2025;48.260;16.432;2023-06-10T12:35:22;11.23;;;5.72;;
4021;SDS011;2025;48.260;16.432;2023-06-10T12:37:57;11.27;;;6.72;;
4021;SDS011;2025;48.260;16.432;2023-06-10T12:40:26;15.27;;;7.90;;
4021;SDS011;2025;48.260;16.432;2023-06-10T12:42:54;14.07;;;8.15;;
4021;SDS011;2025;48.260;16.432;2023-06-10T12:45:28;12.30;;;7.30;;
4021;SDS011;2025;48.260;16.432;2023-06-10T12:48:06;11.80;;;7.47;;
4021;SDS011;2025;48.260;16.432;2023-06-10T12:50:35;12.30;;;7.03;;
4021;SDS011;2025;48.260;16.432;2023-06-10T12:53:04;14.05;;;7.80;;
4021;SDS011;2025;48.260;16.432;2023-06-10T12:55:31;11.98;;;7.57;;
4021;SDS011;2025;48.260;16.432;2023-06-10T12:57:58;10.70;;;5.55;;
4021;SDS011;2025;48.260;16.432;2023-06-10T13:00:26;11.02;;;6.53;;
4021;SDS011;2025;48.260;16.432;2023-06-10T13:02:55;10.52;;;5.88;;
4021;SDS011;2025;48.260;16.432;2023-06-10T13:05:22;9.98;;;5.55;;
4021;SDS011;2025;48.260;16.432;2023-06-10T13:07:51;8.20;;;4.00;;
4021;SDS011;2025;48.260;16.432;2023-06-10T13:10:18;10.57;;;5.22;;
4021;SDS011;2025;48.260;16.432;2023-06-10T13:12:45;8.15;;;4.57;;
4021;SDS011;2025;48.260;16.432;2023-06-10T13:15:13;8.75;;;5.15;;
4021;SDS011;2025;48.260;16.432;2023-06-10T13:17:41;8.80;;;5.20;;
4021;SDS011;2025;48.260;16.432;2023-06-10T13:20:08;8.48;;;5.10;;
4021;SDS011;2025;48.260;16.432;2023-06-10T13:22:36;10.80;;;6.45;;
4021;SDS011;2025;48.260;16.432;2023-06-10T13:25:05;11.98;;;6.40;;
4021;SDS011;2025;48.260;16.432;2023-06-10T13:27:33;11.18;;;6.90;;
4021;SDS011;2025;48.260;16.432;2023-06-10T13:30:00;13.13;;;7.18;;
4021;SDS011;2025;48.260;16.432;2023-06-10T13:32:27;11.57;;;6.93;;
4021;SDS011;2025;48.260;16.432;2023-06-10T13:34:54;10.93;;;6.05;;
4021;SDS011;2025;48.260;16.432;2023-06-10T13:37:22;10.77;;;6.82;;
4021;SDS011;2025;48.260;16.432;2023-06-10T13:39:49;10.32;;;6.88;;
4021;SDS011;2025;48.260;16.432;2023-06-10T13:42:17;12.13;;;7.88;;
4021;SDS011;2025;48.260;16.432;2023-06-10T13:44:45;15.25;;;7.70;;
4021;SDS011;2025;48.260;16.432;2023-06-10T13:47:12;12.82;;;8.07;;
4021;SDS011;2025;48.260;16.432;2023-06-10T13:49:40;11.80;;;7.22;;
4021;SDS011;2025;48.260;16.432;2023-06-10T13:52:07;12.80;;;6.05;;
4021;SDS011;2025;48.260;16.432;2023-06-10T13:54:34;11.77;;;7.18;;
4021;SDS011;2025;48.260;16.432;2023-06-10T13:57:02;12.02;;;7.25;;
4021;SDS011;2025;48.260;16.432;2023-06-10T13:59:30;11.63;;;6.20;;
4021;SDS011;2025;48.260;16.432;2023-06-10T14:01:57;13.65;;;8.20;;
4021;SDS011;2025;48.260;16.432;2023-06-10T14:04:25;11.55;;;6.68;;
4021;SDS011;2025;48.260;16.432;2023-06-10T14:06:52;12.18;;;8.02;;
4021;SDS011;2025;48.260;16.432;2023-06-10T14:09:19;15.20;;;9.30;;
4021;SDS011;2025;48.260;16.432;2023-06-10T14:11:47;11.43;;;6.85;;
4021;SDS011;2025;48.260;16.432;2023-06-10T14:14:14;10.63;;;6.53;;
4021;SDS011;2025;48.260;16.432;2023-06-10T14:16:42;10.68;;;6.60;;
4021;SDS011;2025;48.260;16.432;2023-06-10T14:19:09;10.30;;;6.28;;
4021;SDS011;2025;48.260;16.432;2023-06-10T14:21:36;11.85;;;7.63;;
4021;SDS011;2025;48.260;16.432;2023-06-10T14:24:03;12.27;;;7.03;;
4021;SDS011;2025;48.260;16.432;2023-06-10T14:26:30;11.30;;;6.43;;
4021;SDS011;2025;48.260;16.432;2023-06-10T14:28:58;12.18;;;7.20;;
4021;SDS011;2025;48.260;16.432;2023-06-10T14:31:25;13.00;;;6.85;;
4021;SDS011;2025;48.260;16.432;2023-06-10T14:33:53;9.95;;;5.78;;
4021;SDS011;2025;48.260;16.432;2023-06-10T14:36:20;11.73;;;7.03;;
4021;SDS011;2025;48.260;16.432;2023-06-10T14:38:47;10.98;;;6.80;;
4021;SDS011;2025;48.260;16.432;2023-06-10T14:41:15;10.75;;;6.47;;
4021;SDS011;2025;48.260;16.432;2023-06-10T14:43:42;11.57;;;6.47;;
4021;SDS011;2025;48.260;16.432;2023-06-10T14:46:09;13.07;;;6.65;;
4021;SDS011;2025;48.260;16.432;2023-06-10T14:48:36;10.23;;;6.00;;
4021;SDS011;2025;48.260;16.432;2023-06-10T14:51:04;11.57;;;6.85;;
4021;SDS011;2025;48.260;16.432;2023-06-10T14:53:31;11.10;;;7.15;;
4021;SDS011;2025;48.260;16.432;2023-06-10T14:55:58;11.57;;;7.15;;
4021;SDS011;2025;48.260;16.432;2023-06-10T14:58:25;11.50;;;6.55;;
4021;SDS011;2025;48.260;16.432;2023-06-10T15:00:52;11.77;;;7.07;;